Ambato, Chachoan Airport (SEAM)

NameChachoan Airport
CityAmbato
CountryEcuador
ICAOSEAM
IATAATF
Altitude2591 m
CoordinatesGoogle Map
Live Air TrafficLiveATC.net
METARSEAM 142000Z 16006KT 9999 BKN015 18/14 Q1027
2019-06-14 20:00:00 Wind: South-Southeast (160°) 3.09 m/s - Visibility: > 10000 m - Temperature: 18 °C - Dew point: 14 °C - Humidity: 77.6% - Pressure: 1027 hPa

Sorry, no flights used the airport in this database.